Time;durP1;ratioP1;P1;durP2;ratioP2;P2;SDS_P1;SDS_P2;PMS_P1;PMS_P2;Temp;Humidity;BMP_temperature;BMP_pressure;BME280_temperature;BME280_humidity;BME280_pressure;Samples;Min_cycle;Max_cycle;Signal;HPM_P1;HPM_P2
2021/03/20 00:01:22;;;;;;;4.05;1.30;;;;;;;-2.35;75.56;102210.72;1821093;78;22804;-70
2021/03/20 00:03:49;;;;;;;3.55;1.10;;;;;;;-2.61;81.58;102199.07;1794419;78;21163;-69
2021/03/20 00:06:18;;;;;;;1.90;1.07;;;;;;;-2.86;84.81;102187.95;1791447;80;21194;-74
2021/03/20 00:08:46;;;;;;;2.83;1.17;;;;;;;-3.06;86.11;102173.97;1791390;80;21182;-74
2021/03/20 00:11:13;;;;;;;2.58;1.40;;;;;;;-3.12;86.57;102173.31;1822495;78;21230;-74
2021/03/20 00:13:41;;;;;;;2.65;1.47;;;;;;;-3.19;86.56;102174.38;1823704;77;21882;-71
2021/03/20 00:16:08;;;;;;;3.80;2.47;;;;;;;-3.27;85.99;102173.94;1823748;78;21305;-74
2021/03/20 00:18:36;;;;;;;3.22;1.82;;;;;;;-3.32;85.38;102178.63;1823849;78;21201;-70
2021/03/20 00:21:03;;;;;;;4.08;1.90;;;;;;;-3.40;84.33;102182.05;1823659;77;21541;-70
2021/03/20 00:23:30;;;;;;;6.28;2.00;;;;;;;-3.49;83.13;102178.91;1823836;78;21211;-69
2021/03/20 00:25:57;;;;;;;5.58;2.45;;;;;;;-3.57;81.76;102180.69;1803675;78;21940;-69
2021/03/20 00:28:26;;;;;;;4.75;1.80;;;;;;;-3.63;81.01;102180.05;1791313;79;21557;-69
2021/03/20 00:30:57;;;;;;;10.75;4.00;;;;;;;-3.69;80.63;102180.70;1791324;80;21606;-70
2021/03/20 00:33:25;;;;;;;9.58;3.83;;;;;;;-3.74;80.29;102182.78;1791051;80;21453;-71
2021/03/20 00:35:52;;;;;;;16.15;5.12;;;;;;;-3.73;80.27;102177.80;1791406;80;21630;-69
2021/03/20 00:38:19;;;;;;;16.10;4.80;;;;;;;-3.71;80.08;102186.59;1791569;80;22838;-71
2021/03/20 00:40:46;;;;;;;13.70;4.62;;;;;;;-3.66;80.05;102187.44;1791417;80;21207;-71
2021/03/20 00:43:13;;;;;;;12.85;5.15;;;;;;;-3.58;80.13;102195.61;1791350;80;21693;-71
2021/03/20 00:45:40;;;;;;;10.28;3.98;;;;;;;-3.50;79.94;102193.45;1791529;80;21178;-71
2021/03/20 00:48:12;;;;;;;8.20;2.77;;;;;;;-3.43;79.89;102198.48;1791474;78;21179;-71
2021/03/20 00:50:39;;;;;;;5.85;2.50;;;;;;;-3.39;79.90;102206.16;1790379;78;22839;-76
2021/03/20 00:53:07;;;;;;;3.22;2.02;;;;;;;-3.38;82.85;102207.96;1791504;80;21163;-75
2021/03/20 00:55:34;;;;;;;4.60;1.67;;;;;;;-3.39;84.62;102199.72;1791304;78;21116;-71
2021/03/20 00:58:03;;;;;;;2.40;1.40;;;;;;;-3.35;85.12;102200.19;1791444;80;21267;-70
2021/03/20 01:00:30;;;;;;;4.10;1.32;;;;;;;-3.34;84.33;102189.14;1760069;80;21068;-71
2021/03/20 01:02:57;;;;;;;3.92;2.33;;;;;;;-3.29;83.44;102178.41;1791554;80;22865;-70
2021/03/20 01:05:25;;;;;;;4.35;2.10;;;;;;;-3.26;82.72;102174.88;1791338;78;21176;-75
2021/03/20 01:07:52;;;;;;;5.78;2.70;;;;;;;-3.28;81.95;102179.86;1791490;80;21227;-71
2021/03/20 01:10:21;;;;;;;4.00;1.75;;;;;;;-3.28;81.61;102177.28;1791350;80;21235;-70
2021/03/20 01:12:48;;;;;;;2.87;1.82;;;;;;;-3.26;81.48;102178.34;1791570;80;21203;-71
2021/03/20 01:15:16;;;;;;;5.90;1.80;;;;;;;-3.24;81.39;102179.41;1791391;80;22862;-70
2021/03/20 01:17:43;;;;;;;3.95;2.20;;;;;;;-3.21;81.24;102181.38;1791516;80;21223;-71
2021/03/20 01:20:12;;;;;;;7.72;2.62;;;;;;;-3.23;81.13;102182.89;1791470;80;21195;-70
2021/03/20 01:22:39;;;;;;;6.28;2.47;;;;;;;-3.21;81.06;102183.61;1791452;80;21210;-71
2021/03/20 01:25:08;;;;;;;5.08;2.12;;;;;;;-3.26;80.77;102180.92;1798084;79;21201;-71
2021/03/20 01:27:35;;;;;;;4.35;2.45;;;;;;;-3.28;80.69;102182.82;1810678;78;21825;-71
2021/03/20 01:30:14;;;;;;;6.08;2.87;;;;;;;-3.32;80.55;102182.87;1810545;79;21637;-71
2021/03/20 01:32:41;;;;;;;9.53;4.03;;;;;;;-3.34;80.50;102189.14;1801351;78;21158;-71
2021/03/20 01:35:09;;;;;;;6.50;3.22;;;;;;;-3.41;80.38;102190.55;1794977;78;21251;-74
2021/03/20 01:37:36;;;;;;;9.28;4.12;;;;;;;-3.46;80.30;102190.82;1795239;79;21229;-71
2021/03/20 01:40:05;;;;;;;10.10;4.60;;;;;;;-3.51;80.33;102182.59;1795200;79;22854;-71
2021/03/20 01:42:33;;;;;;;10.85;5.22;;;;;;;-3.54;80.22;102190.02;1795185;79;21166;-72
2021/03/20 01:45:20;;;;;;;12.25;5.55;;;;;;;-3.59;80.20;102184.77;1795006;78;21181;-73
2021/03/20 01:47:58;;;;;;;15.38;6.08;;;;;;;-3.64;80.03;102193.30;1729230;81;21428;-73
2021/03/20 01:50:30;;;;;;;12.43;5.15;;;;;;;-3.69;80.10;102191.91;1748802;82;21147;-74
2021/03/20 01:53:00;;;;;;;10.53;4.70;;;;;;;-3.72;80.18;102193.79;1781961;79;22938;-73
2021/03/20 01:55:27;;;;;;;10.88;5.75;;;;;;;-3.75;80.27;102190.88;1798464;78;21160;-74
2021/03/20 01:58:02;;;;;;;14.60;5.67;;;;;;;-3.77;80.35;102189.81;1795942;78;21234;-73
2021/03/20 02:00:35;;;;;;;14.00;5.40;;;;;;;-3.79;80.35;102186.17;1824862;78;21146;-74
2021/03/20 02:03:08;;;;;;;13.35;5.95;;;;;;;-3.78;80.51;102189.26;1824824;77;21115;-70
2021/03/20 02:05:36;;;;;;;15.03;6.00;;;;;;;-3.75;80.72;102189.98;1824828;78;21872;-70
2021/03/20 02:08:05;;;;;;;12.93;5.92;;;;;;;-3.68;80.89;102182.13;1824443;78;21135;-70
2021/03/20 02:10:34;;;;;;;10.28;5.53;;;;;;;-3.58;81.02;102182.73;1824342;78;21159;-70
2021/03/20 02:13:36;;;;;;;13.45;5.40;;;;;;;-3.49;81.14;102183.70;1824784;78;21178;-70
2021/03/20 02:16:11;;;;;;;14.65;5.50;;;;;;;-3.38;81.09;102187.02;1807654;78;21584;-69
2021/03/20 02:18:46;;;;;;;11.80;5.37;;;;;;;-3.31;81.03;102180.81;1792393;80;22862;-73
2021/03/20 02:21:41;;;;;;;13.88;5.97;;;;;;;-3.27;80.97;102183.34;1735960;82;21219;-73
2021/03/20 02:24:39;;;;;;;14.60;5.58;;;;;;;-3.24;80.84;102187.14;1792316;80;21194;-74
2021/03/20 02:27:45;;;;;;;14.50;6.20;;;;;;;-3.17;80.93;102182.27;1791425;80;21647;-73
2021/03/20 02:30:24;;;;;;;14.65;5.72;;;;;;;-3.14;80.71;102184.74;1792372;80;21194;-74
2021/03/20 02:33:03;;;;;;;18.45;6.42;;;;;;;-3.08;80.56;102190.90;1789657;79;21893;-74
2021/03/20 02:35:35;;;;;;;15.90;5.83;;;;;;;-3.05;80.55;102191.61;1728999;80;21105;-73
2021/03/20 02:38:32;;;;;;;11.55;5.70;;;;;;;-3.04;80.34;102184.05;1751350;80;21140;-73
2021/03/20 02:41:28;;;;;;;10.58;5.35;;;;;;;-3.08;80.08;102187.42;1724706;83;21207;-74
2021/03/20 02:44:17;;;;;;;15.35;6.30;;;;;;;-3.16;79.83;102190.11;1721683;83;21144;-73
2021/03/20 02:47:05;;;;;;;11.68;5.55;;;;;;;-3.23;79.74;102191.91;1724686;83;21885;-74
2021/03/20 02:49:53;;;;;;;12.82;7.37;;;;;;;-3.28;79.61;102194.02;1722250;83;21104;-74
2021/03/20 02:52:26;;;;;;;14.28;6.03;;;;;;;-3.35;79.45;102199.28;1723627;83;21123;-73
2021/03/20 02:55:13;;;;;;;12.00;6.10;;;;;;;-3.39;79.59;102201.01;1724651;83;21199;-73
2021/03/20 02:57:51;;;;;;;14.10;6.22;;;;;;;-3.40;79.68;102196.59;1722168;83;21231;-73
2021/03/20 03:00:36;;;;;;;12.75;5.45;;;;;;;-3.45;79.47;102198.70;1732786;81;22894;-74
2021/03/20 03:03:03;;;;;;;11.18;5.90;;;;;;;-3.52;79.32;102201.39;1749513;82;21583;-74
2021/03/20 03:05:43;;;;;;;12.15;4.75;;;;;;;-3.60;79.32;102203.16;1780584;80;21543;-73
2021/03/20 03:08:17;;;;;;;10.72;5.45;;;;;;;-3.65;79.22;102203.43;1749722;82;21203;-73
2021/03/20 03:10:52;;;;;;;14.23;5.42;;;;;;;-3.75;79.19;102205.03;1749682;82;21212;-73
2021/03/20 03:13:28;;;;;;;15.30;5.67;;;;;;;-3.81;79.18;102203.46;1749774;82;21956;-73
2021/03/20 03:15:59;;;;;;;14.20;5.95;;;;;;;-3.89;79.21;102194.03;1749570;82;21227;-74
2021/03/20 03:18:31;;;;;;;13.83;5.58;;;;;;;-3.96;79.18;102199.83;1749707;82;21587;-73
2021/03/20 03:21:00;;;;;;;13.30;5.58;;;;;;;-4.02;79.22;102196.58;1749715;82;21188;-74
2021/03/20 03:23:31;;;;;;;12.13;5.37;;;;;;;-4.07;79.24;102192.98;1749622;82;21160;-72
2021/03/20 03:26:07;;;;;;;15.55;6.30;;;;;;;-4.11;79.25;102199.45;1702939;83;21990;-68
2021/03/20 03:28:35;;;;;;;16.10;5.95;;;;;;;-4.15;79.40;102200.81;1737160;82;21512;-69
2021/03/20 03:31:07;;;;;;;12.40;5.83;;;;;;;-4.12;79.63;102190.84;1737372;81;21633;-69
2021/03/20 03:33:47;;;;;;;11.22;5.65;;;;;;;-4.11;79.63;102199.09;1739197;82;21533;-73
2021/03/20 03:36:14;;;;;;;10.25;5.70;;;;;;;-4.13;79.42;102203.52;1719295;82;21215;-73
2021/03/20 03:38:55;;;;;;;13.60;5.70;;;;;;;-4.17;79.44;102202.66;1751116;81;21955;-70
2021/03/20 03:41:30;;;;;;;13.05;5.95;;;;;;;-4.21;79.33;102202.70;1751004;81;21126;-70
2021/03/20 03:43:57;;;;;;;15.25;6.60;;;;;;;-4.27;79.37;102204.62;1751030;81;21145;-70
2021/03/20 03:46:28;;;;;;;15.18;5.92;;;;;;;-4.32;79.40;102201.58;1750825;81;22187;-72
2021/03/20 03:48:56;;;;;;;13.10;6.37;;;;;;;-4.37;79.40;102201.45;1751180;81;21205;-71
2021/03/20 03:51:24;;;;;;;10.23;5.42;;;;;;;-4.40;79.53;102197.63;1751114;81;22863;-69
2021/03/20 03:53:52;;;;;;;11.40;5.42;;;;;;;-4.43;79.50;102198.22;1751063;81;21210;-74
2021/03/20 03:56:37;;;;;;;11.30;5.87;;;;;;;-4.48;79.56;102206.19;1751026;81;21201;-73
2021/03/20 03:59:20;;;;;;;11.08;5.50;;;;;;;-4.52;79.64;102210.08;1750912;81;21674;-72
2021/03/20 04:02:14;;;;;;;11.05;5.70;;;;;;;-4.55;79.75;102210.63;1751226;81;21203;-69
2021/03/20 04:05:01;;;;;;;11.35;5.40;;;;;;;-4.58;79.79;102210.33;1750959;81;21902;-70
2021/03/20 04:08:06;;;;;;;12.82;5.45;;;;;;;-4.60;79.85;102210.88;1747888;81;21612;-74
2021/03/20 04:10:54;;;;;;;9.88;4.78;;;;;;;-4.63;80.00;102212.75;1750986;81;21252;-74
2021/03/20 04:13:47;;;;;;;11.55;5.12;;;;;;;-4.67;80.00;102219.94;1751244;81;21264;-70
2021/03/20 04:16:17;;;;;;;14.87;5.27;;;;;;;-4.70;80.15;102224.39;1751461;81;21224;-70
2021/03/20 04:19:02;;;;;;;9.83;4.40;;;;;;;-4.72;80.23;102229.34;1751015;81;22155;-70
2021/03/20 04:21:44;;;;;;;10.25;5.25;;;;;;;-4.73;80.33;102231.39;1751155;81;21150;-71
2021/03/20 04:24:29;;;;;;;11.60;5.10;;;;;;;-4.74;80.43;102227.37;1751061;81;21237;-71
2021/03/20 04:27:06;;;;;;;10.05;4.40;;;;;;;-4.75;80.50;102230.32;1721053;82;21233;-71
2021/03/20 04:29:55;;;;;;;12.53;4.17;;;;;;;-4.73;80.67;102231.74;1694667;83;21496;-71
2021/03/20 04:32:33;;;;;;;9.40;4.72;;;;;;;-4.71;80.81;102227.69;1723301;81;21901;-72
2021/03/20 04:35:08;;;;;;;8.40;4.37;;;;;;;-4.69;80.94;102218.52;1729718;82;21567;-69
2021/03/20 04:37:39;;;;;;;10.68;4.58;;;;;;;-4.66;80.95;102223.97;1789623;80;21581;-74
2021/03/20 04:40:11;;;;;;;11.18;4.50;;;;;;;-4.65;81.01;102221.95;1789619;80;21170;-74
2021/03/20 04:42:38;;;;;;;11.93;4.80;;;;;;;-4.60;81.17;102214.39;1766188;80;21155;-74
2021/03/20 04:45:11;;;;;;;10.05;4.40;;;;;;;-4.52;81.35;102210.08;1789519;80;21800;-76
2021/03/20 04:47:38;;;;;;;11.75;4.87;;;;;;;-4.43;81.41;102210.14;1786306;80;21130;-76
2021/03/20 04:50:10;;;;;;;12.35;4.80;;;;;;;-4.34;81.53;102202.14;1789618;80;21155;-74
2021/03/20 04:52:40;;;;;;;7.42;4.45;;;;;;;-4.27;81.49;102191.77;1788945;80;21223;-72
2021/03/20 04:55:08;;;;;;;10.20;4.47;;;;;;;-4.20;81.42;102194.26;1789495;79;21190;-68
2021/03/20 04:57:44;;;;;;;15.80;4.85;;;;;;;-4.11;81.55;102187.53;1789515;80;21769;-72
2021/03/20 05:00:45;;;;;;;11.80;4.42;;;;;;;-4.03;81.53;102183.58;1789491;79;21565;-71
2021/03/20 05:03:20;;;;;;;10.70;4.40;;;;;;;-3.96;81.46;102172.81;1789599;80;21186;-69
2021/03/20 05:05:55;;;;;;;8.30;4.17;;;;;;;-3.89;81.33;102183.36;1802259;78;21206;-70
2021/03/20 05:08:53;;;;;;;8.53;4.87;;;;;;;-3.87;81.27;102184.81;1821870;77;21147;-73
2021/03/20 05:11:52;;;;;;;7.45;4.85;;;;;;;-3.83;81.32;102186.95;1789102;79;21874;-70
2021/03/20 05:14:37;;;;;;;12.58;5.85;;;;;;;-3.77;81.34;102192.39;1789459;80;21590;-70
2021/03/20 05:17:14;;;;;;;13.10;5.97;;;;;;;-3.72;81.26;102192.50;1797498;78;21194;-71
2021/03/20 05:19:41;;;;;;;10.90;5.55;;;;;;;-3.68;81.32;102187.27;1821888;78;21229;-74
2021/03/20 05:22:30;;;;;;;13.38;5.37;;;;;;;-3.66;81.22;102192.23;1821853;78;21123;-74
2021/03/20 05:24:58;;;;;;;10.75;5.62;;;;;;;-3.63;81.17;102196.78;1797972;78;21776;-70
2021/03/20 05:27:29;;;;;;;10.08;5.53;;;;;;;-3.61;81.10;102190.13;1816177;78;21202;-72
2021/03/20 05:29:56;;;;;;;9.88;5.12;;;;;;;-3.56;81.16;102190.24;1821504;78;21197;-70
2021/03/20 05:32:29;;;;;;;13.80;5.87;;;;;;;-3.47;81.26;102192.49;1821406;78;21287;-70
2021/03/20 05:34:58;;;;;;;11.20;5.42;;;;;;;-3.37;81.40;102192.68;1818151;78;21202;-74
2021/03/20 05:37:36;;;;;;;13.30;5.53;;;;;;;-3.24;81.50;102195.25;1791754;80;22731;-74
2021/03/20 05:40:11;;;;;;;9.58;5.20;;;;;;;-3.09;81.60;102194.25;1791305;78;22401;-71
2021/03/20 05:43:25;;;;;;;11.70;4.97;;;;;;;-2.92;81.59;102201.52;1790923;80;21191;-70
2021/03/20 05:46:02;;;;;;;9.30;4.78;;;;;;;-2.77;81.64;102192.76;1790669;78;21210;-71
2021/03/20 05:48:37;;;;;;;9.30;5.33;;;;;;;-2.57;81.63;102191.82;1809573;78;21123;-70
2021/03/20 05:51:53;;;;;;;8.73;5.25;;;;;;;-2.39;81.47;102195.70;1823908;78;21868;-69
2021/03/20 05:55:04;;;;;;;14.70;7.08;;;;;;;-2.25;81.30;102208.31;1781044;80;21212;-72
2021/03/20 05:57:39;;;;;;;16.93;6.90;;;;;;;-2.10;80.93;102214.44;1751440;81;21144;-69
2021/03/20 06:00:39;;;;;;;14.90;7.65;;;;;;;-2.01;80.60;102216.29;1761650;81;21174;-70
2021/03/20 06:03:23;;;;;;;16.27;8.03;;;;;;;-1.97;80.68;102209.37;1823795;78;21553;-70
2021/03/20 06:06:01;;;;;;;17.77;7.95;;;;;;;-1.87;80.76;102211.58;1823662;78;22926;-69
2021/03/20 06:08:59;;;;;;;16.73;8.73;;;;;;;-1.74;81.01;102215.88;1823868;78;21206;-71
2021/03/20 06:11:50;;;;;;;20.82;8.58;;;;;;;-1.64;80.80;102214.72;1824020;78;21152;-70
2021/03/20 06:18:16;;;;;;;17.70;8.13;;;;;;;-1.52;80.66;102218.89;1558732;91;21266;-68
2021/03/20 06:20:59;;;;;;;21.40;9.20;;;;;;;-1.39;80.55;102218.02;1810554;78;23407;-69
2021/03/20 06:24:04;;;;;;;22.70;10.05;;;;;;;-1.33;80.45;102218.99;1796610;79;21207;-71
2021/03/20 06:26:34;;;;;;;16.97;10.30;;;;;;;-1.26;80.29;102216.24;1767112;79;22857;-73
2021/03/20 06:29:22;;;;;;;19.60;10.68;;;;;;;-1.18;80.02;102215.67;1764811;80;21237;-72
2021/03/20 06:32:03;;;;;;;20.75;11.50;;;;;;;-1.12;79.92;102220.13;1752344;79;21598;-73
2021/03/20 06:34:42;;;;;;;23.83;10.78;;;;;;;-0.96;80.25;102226.36;1796433;79;21453;-73
2021/03/20 06:37:20;;;;;;;16.90;9.43;;;;;;;-0.73;80.22;102222.45;1795045;79;21144;-74
2021/03/20 06:40:05;;;;;;;21.10;9.63;;;;;;;-0.58;80.00;102222.61;1789984;79;21887;-72
2021/03/20 06:42:35;;;;;;;19.70;9.18;;;;;;;-0.43;79.97;102224.03;1789290;80;21129;-73
2021/03/20 06:45:20;;;;;;;28.25;15.78;;;;;;;-0.36;79.35;102217.73;1757001;81;21721;-74
2021/03/20 06:47:51;;;;;;;26.80;10.45;;;;;;;-0.35;78.80;102216.98;1756880;81;21203;-74
2021/03/20 06:50:26;;;;;;;15.55;8.63;;;;;;;-0.34;78.65;102216.59;1759102;80;21187;-74
2021/03/20 06:53:02;;;;;;;14.58;7.87;;;;;;;-0.34;78.39;102214.90;1760901;80;22107;-74
2021/03/20 06:55:33;;;;;;;16.95;7.97;;;;;;;-0.36;78.25;102219.42;1756884;81;21235;-74
2021/03/20 06:58:18;;;;;;;17.77;10.50;;;;;;;-0.30;78.45;102218.32;1755916;81;21176;-75
2021/03/20 07:00:45;;;;;;;24.23;13.15;;;;;;;-0.26;78.77;102213.05;1756701;80;21205;-72
2021/03/20 07:03:23;;;;;;;29.00;16.42;;;;;;;-0.19;78.39;102217.98;1756594;81;21164;-74
2021/03/20 07:06:29;;;;;;;22.55;13.13;;;;;;;-0.18;78.27;102222.80;1756755;81;21899;-69
2021/03/20 07:08:59;;;;;;;22.90;11.00;;;;;;;-0.22;78.03;102222.52;1756723;81;21232;-68
2021/03/20 07:11:33;;;;;;;21.20;10.82;;;;;;;-0.21;77.97;102224.70;1756732;81;21706;-69
2021/03/20 07:14:02;;;;;;;;;;;;;;;-0.15;77.73;102224.00;1759542;81;21232;-74
2021/03/20 07:16:30;;;;;;;12.28;7.40;;;;;;;-0.06;77.84;102224.81;1756834;81;20248;-70
2021/03/20 07:19:14;;;;;;;12.37;6.70;;;;;;;0.16;78.13;102225.48;1755784;81;22846;-75
2021/03/20 07:21:44;;;;;;;14.43;7.03;;;;;;;0.42;78.13;102225.63;1748551;82;21249;-70
2021/03/20 07:24:17;;;;;;;15.18;7.42;;;;;;;0.80;78.19;102224.23;1748769;82;21549;-74
2021/03/20 07:26:56;;;;;;;13.35;7.50;;;;;;;1.21;78.04;102231.72;1745432;82;21168;-75
2021/03/20 07:29:45;;;;;;;16.85;7.47;;;;;;;1.71;78.09;102241.62;1753610;81;21180;-73
2021/03/20 07:32:25;;;;;;;32.70;15.58;;;;;;;2.22;78.12;102234.16;1750811;81;21993;-75
2021/03/20 07:34:57;;;;;;;39.60;18.55;;;;;;;2.72;77.56;102232.18;1750576;82;21196;-74
2021/03/20 07:37:28;;;;;;;15.90;7.62;;;;;;;3.14;77.24;102238.06;1722332;82;21236;-73
2021/03/20 07:39:58;;;;;;;16.07;6.85;;;;;;;3.47;76.69;102235.90;1750472;82;21156;-74
2021/03/20 07:42:36;;;;;;;13.25;5.65;;;;;;;3.60;75.69;102229.91;1750779;82;21485;-74
2021/03/20 07:45:22;;;;;;;12.78;5.67;;;;;;;3.67;75.11;102237.41;1750577;81;21168;-74
2021/03/20 07:48:00;;;;;;;8.45;4.65;;;;;;;3.56;73.33;102245.20;1750658;82;21209;-75
2021/03/20 07:50:35;;;;;;;11.22;5.30;;;;;;;3.44;73.42;102239.55;1750610;82;21289;-74
2021/03/20 07:53:19;;;;;;;9.38;4.87;;;;;;;3.47;73.29;102245.38;1750809;82;21248;-74
2021/03/20 07:56:01;;;;;;;11.20;4.97;;;;;;;3.50;73.02;102238.72;1750788;81;21148;-74
2021/03/20 07:58:36;;;;;;;8.43;4.70;;;;;;;3.45;72.47;102239.16;1720877;82;21943;-70
2021/03/20 08:01:07;;;;;;;12.40;6.85;;;;;;;3.42;72.28;102241.14;1750389;81;21212;-70
2021/03/20 08:03:54;;;;;;;10.13;5.17;;;;;;;3.27;71.33;102243.84;1750334;81;21578;-72
2021/03/20 08:06:47;;;;;;;15.90;10.05;;;;;;;3.06;71.35;102249.55;1750550;81;21199;-73
2021/03/20 08:09:23;;;;;;;11.20;7.10;;;;;;;2.79;70.65;102253.06;1750495;81;21188;-73
2021/03/20 08:12:10;;;;;;;7.85;5.10;;;;;;;2.56;70.27;102251.21;1750453;81;22829;-73
2021/03/20 08:14:51;;;;;;;8.03;3.98;;;;;;;2.47;71.03;102246.56;1750535;81;21595;-76
2021/03/20 08:17:20;;;;;;;9.08;4.15;;;;;;;2.54;70.72;102247.58;1750414;82;21213;-75
2021/03/20 08:19:47;;;;;;;9.78;4.85;;;;;;;2.45;70.51;102240.33;1750315;81;21239;-75
2021/03/20 08:22:58;;;;;;;9.13;4.25;;;;;;;2.42;70.36;102239.70;1750218;82;21188;-75
2021/03/20 08:25:33;;;;;;;8.33;4.28;;;;;;;2.51;70.69;102235.62;1752707;81;21886;-75
2021/03/20 08:28:24;;;;;;;7.03;3.50;;;;;;;2.61;70.26;102246.00;1756516;81;21316;-74
2021/03/20 08:31:15;;;;;;;6.50;3.77;;;;;;;2.64;70.08;102244.03;1755957;80;21212;-75
2021/03/20 08:34:16;;;;;;;10.38;3.95;;;;;;;2.79;70.06;102242.66;1756037;81;21567;-74
2021/03/20 08:37:07;;;;;;;7.15;3.62;;;;;;;2.94;70.06;102237.78;1756126;81;21193;-72
2021/03/20 08:40:20;;;;;;;7.28;3.70;;;;;;;2.97;69.28;102236.73;1756227;81;22797;-72
2021/03/20 08:43:18;;;;;;;10.53;4.67;;;;;;;2.80;68.89;102235.39;1755875;81;21236;-72
2021/03/20 08:46:30;;;;;;;21.95;9.55;;;;;;;2.64;68.85;102228.44;1756088;80;21133;-72
2021/03/20 08:49:30;;;;;;;10.23;4.35;;;;;;;2.51;68.39;102218.73;1756057;81;21169;-72
2021/03/20 08:52:17;;;;;;;54.98;21.70;;;;;;;2.28;67.83;102209.08;1756004;81;21612;-72
2021/03/20 08:55:17;;;;;;;11.43;5.70;;;;;;;2.22;67.83;102199.09;1756015;81;21842;-73
2021/03/20 08:58:01;;;;;;;11.10;4.70;;;;;;;2.16;67.71;102204.16;1756100;81;21220;-72
2021/03/20 09:00:42;;;;;;;9.68;3.98;;;;;;;2.13;67.73;102208.32;1756083;81;21209;-75
2021/03/20 09:03:13;;;;;;;7.47;4.05;;;;;;;2.17;67.62;102207.29;1755856;81;21575;-72
2021/03/20 09:05:47;;;;;;;10.13;4.42;;;;;;;2.17;67.27;102203.39;1756225;81;21087;-74
2021/03/20 09:08:24;;;;;;;10.43;3.92;;;;;;;2.21;67.25;102192.06;1756057;81;21949;-75
2021/03/20 09:11:23;;;;;;;5.42;3.60;;;;;;;2.30;67.19;102198.02;1755924;81;21153;-72
2021/03/20 09:14:07;;;;;;;9.93;4.05;;;;;;;2.38;66.85;102197.33;1686077;84;21257;-74
2021/03/20 09:16:45;;;;;;;11.30;4.78;;;;;;;2.55;67.01;102195.20;1685955;84;21228;-75
2021/03/20 09:19:24;;;;;;;8.38;4.05;;;;;;;2.83;67.04;102186.20;1685986;84;21245;-75
2021/03/20 09:21:58;;;;;;;8.25;3.90;;;;;;;3.20;66.80;102190.81;1685916;85;22894;-73
2021/03/20 09:24:27;;;;;;;6.92;3.05;;;;;;;3.42;66.37;102185.17;1688276;83;21245;-73
2021/03/20 09:27:00;;;;;;;6.58;3.35;;;;;;;3.48;65.00;102183.03;1714715;83;21229;-73
2021/03/20 09:29:34;;;;;;;5.90;2.95;;;;;;;3.36;64.76;102180.80;1715011;83;21224;-73
2021/03/20 09:32:06;;;;;;;7.62;3.47;;;;;;;3.33;64.39;102183.16;1714759;83;22761;-74
2021/03/20 09:34:38;;;;;;;5.15;2.27;;;;;;;3.16;63.83;102185.75;1714784;83;22965;-75
2021/03/20 09:37:22;;;;;;;4.85;2.87;;;;;;;3.03;63.74;102181.69;1714685;83;21253;-74
2021/03/20 09:39:55;;;;;;;7.72;3.10;;;;;;;2.86;63.12;102181.66;1714676;83;21304;-75
2021/03/20 09:42:30;;;;;;;5.37;2.52;;;;;;;2.76;63.24;102186.90;1714773;83;21261;-78
2021/03/20 09:45:14;;;;;;;5.65;2.62;;;;;;;2.77;63.27;102183.13;1714691;83;21667;-73
2021/03/20 09:47:49;;;;;;;5.30;2.92;;;;;;;2.94;63.10;102181.86;1715026;83;21904;-73
2021/03/20 09:50:27;;;;;;;5.17;2.52;;;;;;;3.14;63.34;102175.63;1739681;80;21151;-73
2021/03/20 09:53:14;;;;;;;5.65;3.05;;;;;;;3.42;63.14;102169.95;1787133;80;21193;-73
2021/03/20 09:55:48;;;;;;;5.37;2.58;;;;;;;3.44;62.48;102172.28;1754223;81;21097;-73
2021/03/20 09:58:24;;;;;;;10.23;3.20;;;;;;;3.27;61.77;102169.69;1778899;80;21140;-75
2021/03/20 10:00:57;;;;;;;10.98;3.02;;;;;;;3.10;61.74;102165.77;1778857;80;21898;-75
2021/03/20 10:03:52;;;;;;;6.67;3.15;;;;;;;3.16;62.23;102168.84;1778900;80;21208;-76
2021/03/20 10:06:36;;;;;;;6.30;3.05;;;;;;;3.30;62.29;102159.11;1778937;80;21168;-76
2021/03/20 10:09:20;;;;;;;6.40;3.30;;;;;;;3.46;62.12;102149.47;1779062;80;21203;-73
2021/03/20 10:12:02;;;;;;;5.25;2.40;;;;;;;3.63;62.09;102148.55;1729819;81;21517;-72
2021/03/20 10:14:31;;;;;;;5.03;2.27;;;;;;;3.88;61.84;102153.48;1755886;81;21795;-73
2021/03/20 10:17:17;;;;;;;6.50;2.10;;;;;;;4.19;61.80;102151.85;1756100;81;21195;-75
2021/03/20 10:19:53;;;;;;;3.60;2.20;;;;;;;4.42;60.95;102151.31;1756163;80;21175;-75
2021/03/20 10:22:27;;;;;;;7.67;2.70;;;;;;;4.56;60.94;102138.88;1767309;81;21640;-75
2021/03/20 10:24:54;;;;;;;8.78;2.70;;;;;;;4.70;60.54;102135.94;1775456;79;21182;-75
2021/03/20 10:27:30;;;;;;;8.20;2.62;;;;;;;4.72;60.32;102133.45;1799060;79;22033;-75
2021/03/20 10:30:20;;;;;;;5.40;2.67;;;;;;;4.63;59.78;102135.89;1798820;79;21227;-75
2021/03/20 10:33:06;;;;;;;4.97;2.60;;;;;;;4.40;59.32;102139.47;1798705;79;21748;-75
2021/03/20 10:35:37;;;;;;;3.10;1.85;;;;;;;4.14;59.04;102141.48;1799025;79;21190;-75
2021/03/20 10:38:26;;;;;;;5.40;2.22;;;;;;;4.05;59.11;102147.31;1799035;79;21231;-76
2021/03/20 10:41:06;;;;;;;5.25;2.37;;;;;;;4.07;59.38;102160.98;1798888;79;21810;-75
2021/03/20 10:43:42;;;;;;;6.83;2.85;;;;;;;4.21;59.63;102158.48;1762636;81;21215;-75
2021/03/20 10:46:15;;;;;;;3.45;2.02;;;;;;;4.35;59.00;102147.75;1783419;79;21194;-75
2021/03/20 10:48:42;;;;;;;5.70;2.50;;;;;;;4.45;59.00;102156.36;1798017;79;21120;-76
2021/03/20 10:51:10;;;;;;;6.10;2.87;;;;;;;4.51;58.48;102151.98;1798877;79;21645;-76
2021/03/20 10:53:45;;;;;;;12.10;7.10;;;;;;;4.46;58.53;102149.02;1798781;79;21948;-77
2021/03/20 10:56:38;;;;;;;7.65;4.83;;;;;;;4.54;58.90;102153.48;1798328;79;21139;-77
2021/03/20 10:59:19;;;;;;;5.22;3.05;;;;;;;4.71;59.12;102149.50;1778156;79;21175;-75
2021/03/20 11:01:46;;;;;;;5.05;2.95;;;;;;;4.92;58.51;102148.80;1765097;81;21143;-77
2021/03/20 11:04:26;;;;;;;5.37;2.95;;;;;;;5.03;58.02;102147.85;1765729;81;21204;-77
2021/03/20 11:06:54;;;;;;;7.40;3.20;;;;;;;5.05;57.82;102140.14;1764733;81;21859;-77
2021/03/20 11:09:30;;;;;;;5.95;2.98;;;;;;;5.15;57.83;102134.73;1765854;81;21267;-76
2021/03/20 11:12:02;;;;;;;6.25;3.80;;;;;;;5.22;57.66;102129.55;1765949;81;21257;-77
2021/03/20 11:14:29;;;;;;;12.82;4.58;;;;;;;5.24;57.58;102127.54;1765762;81;21270;-75
2021/03/20 11:17:04;;;;;;;7.55;4.22;;;;;;;5.25;57.31;102125.83;1765865;81;21218;-76
2021/03/20 11:19:37;;;;;;;8.70;4.72;;;;;;;5.18;56.85;102124.52;1765645;81;21950;-74
2021/03/20 11:22:29;;;;;;;9.08;4.22;;;;;;;5.24;57.30;102117.52;1741702;81;21220;-75
2021/03/20 11:24:58;;;;;;;8.08;4.60;;;;;;;5.55;57.67;102111.74;1737697;81;21226;-75
2021/03/20 11:27:29;;;;;;;5.72;3.60;;;;;;;5.88;57.42;102105.66;1738717;81;21260;-72
2021/03/20 11:30:20;;;;;;;9.33;5.17;;;;;;;6.09;57.05;102105.77;1736638;82;21466;-72
2021/03/20 11:32:47;;;;;;;10.75;4.25;;;;;;;6.32;57.27;102099.39;1753775;81;21980;-77
2021/03/20 11:35:25;;;;;;;7.67;3.65;;;;;;;6.61;56.75;102096.43;1759775;81;21215;-76
2021/03/20 11:37:54;;;;;;;8.63;4.55;;;;;;;6.78;56.44;102093.55;1759975;81;21252;-75
2021/03/20 11:40:32;;;;;;;8.28;4.17;;;;;;;6.90;56.32;102081.62;1740315;82;21755;-73
2021/03/20 11:43:07;;;;;;;7.20;4.20;;;;;;;6.95;55.82;102073.23;1740547;82;22285;-72
2021/03/20 11:45:42;;;;;;;8.05;4.90;;;;;;;6.91;55.58;102063.81;1735307;82;21913;-72
2021/03/20 11:48:46;;;;;;;7.12;5.03;;;;;;;6.74;55.37;102066.70;1751856;81;21206;-74
2021/03/20 11:51:15;;;;;;;8.10;4.97;;;;;;;6.51;55.28;102060.02;1734193;82;21207;-74
2021/03/20 11:53:48;;;;;;;10.05;5.87;;;;;;;6.26;55.30;102058.48;1773073;80;21140;-74
2021/03/20 11:56:23;;;;;;;10.83;5.43;;;;;;;6.18;55.57;102057.10;1773152;80;21196;-75
2021/03/20 11:59:01;;;;;;;7.80;4.40;;;;;;;6.16;55.68;102056.11;1773062;80;21884;-74
2021/03/20 12:01:40;;;;;;;7.20;4.28;;;;;;;6.11;55.27;102046.64;1772175;80;21160;-74
2021/03/20 12:04:15;;;;;;;7.72;3.70;;;;;;;5.99;54.91;102038.93;1773029;80;21219;-74
2021/03/20 12:06:42;;;;;;;14.95;4.80;;;;;;;5.80;54.94;102033.27;1772878;80;21641;-71
2021/03/20 12:12:09;;;;;;;10.95;3.42;;;;;;;5.60;55.16;102019.83;1857163;76;22703;-71
2021/03/20 12:14:49;;;;;;;8.60;4.90;;;;;;;5.46;55.26;102019.31;1832243;77;21522;-71
2021/03/20 12:17:24;;;;;;;5.37;3.05;;;;;;;5.38;55.26;102020.52;1824379;77;21814;-78
2021/03/20 12:20:06;;;;;;;5.62;3.70;;;;;;;5.26;54.99;102020.62;1823011;77;21571;-76